sensor_id;sensor_type;location;lat;lon;timestamp;temperature;humidity
15359;DHT22;7779;49.596;11.070;2023-04-01T00:01:00;10.10;67.80
15359;DHT22;7779;49.596;11.070;2023-04-01T00:03:28;10.10;67.90
15359;DHT22;7779;49.596;11.070;2023-04-01T00:05:55;10.00;67.90
15359;DHT22;7779;49.596;11.070;2023-04-01T00:08:23;10.00;67.90
15359;DHT22;7779;49.596;11.070;2023-04-01T00:10:49;9.90;68.90
15359;DHT22;7779;49.596;11.070;2023-04-01T00:13:15;9.90;69.00
15359;DHT22;7779;49.596;11.070;2023-04-01T00:15:42;9.90;69.10
15359;DHT22;7779;49.596;11.070;2023-04-01T00:18:08;9.90;69.20
15359;DHT22;7779;49.596;11.070;2023-04-01T00:20:34;9.80;70.00
15359;DHT22;7779;49.596;11.070;2023-04-01T00:23:00;9.80;69.70
15359;DHT22;7779;49.596;11.070;2023-04-01T00:25:25;9.80;69.90
15359;DHT22;7779;49.596;11.070;2023-04-01T00:27:51;9.80;70.20
15359;DHT22;7779;49.596;11.070;2023-04-01T00:30:17;9.80;70.40
15359;DHT22;7779;49.596;11.070;2023-04-01T00:32:44;9.90;70.70
15359;DHT22;7779;49.596;11.070;2023-04-01T00:35:10;9.90;70.90
15359;DHT22;7779;49.596;11.070;2023-04-01T00:37:36;9.90;71.00
15359;DHT22;7779;49.596;11.070;2023-04-01T00:40:19;10.00;70.00
15359;DHT22;7779;49.596;11.070;2023-04-01T00:42:54;10.00;70.10
15359;DHT22;7779;49.596;11.070;2023-04-01T00:47:54;10.10;70.30
15359;DHT22;7779;49.596;11.070;2023-04-01T00:50:22;10.20;70.30
15359;DHT22;7779;49.596;11.070;2023-04-01T00:52:51;10.20;70.30
15359;DHT22;7779;49.596;11.070;2023-04-01T00:55:19;10.30;70.40
15359;DHT22;7779;49.596;11.070;2023-04-01T00:57:49;10.30;70.30
15359;DHT22;7779;49.596;11.070;2023-04-01T01:00:17;10.40;70.40
15359;DHT22;7779;49.596;11.070;2023-04-01T01:02:44;10.40;70.30
15359;DHT22;7779;49.596;11.070;2023-04-01T01:05:14;10.50;70.30
15359;DHT22;7779;49.596;11.070;2023-04-01T01:08:03;10.50;70.20
15359;DHT22;7779;49.596;11.070;2023-04-01T01:10:39;10.60;70.40
15359;DHT22;7779;49.596;11.070;2023-04-01T01:13:18;10.60;70.10
15359;DHT22;7779;49.596;11.070;2023-04-01T01:16:04;10.70;69.70
15359;DHT22;7779;49.596;11.070;2023-04-01T01:18:56;10.70;70.00
15359;DHT22;7779;49.596;11.070;2023-04-01T01:22:12;10.80;70.00
15359;DHT22;7779;49.596;11.070;2023-04-01T01:25:06;10.80;69.80
15359;DHT22;7779;49.596;11.070;2023-04-01T01:27:39;10.90;69.70
15359;DHT22;7779;49.596;11.070;2023-04-01T01:33:17;10.90;69.50
15359;DHT22;7779;49.596;11.070;2023-04-01T01:36:15;11.00;69.00
15359;DHT22;7779;49.596;11.070;2023-04-01T01:38:48;11.00;69.50
15359;DHT22;7779;49.596;11.070;2023-04-01T01:41:17;11.00;69.40
15359;DHT22;7779;49.596;11.070;2023-04-01T01:43:47;11.10;69.30
15359;DHT22;7779;49.596;11.070;2023-04-01T01:46:19;11.10;69.20
15359;DHT22;7779;49.596;11.070;2023-04-01T01:48:49;11.10;69.80
15359;DHT22;7779;49.596;11.070;2023-04-01T01:51:17;11.10;69.10
15359;DHT22;7779;49.596;11.070;2023-04-01T01:53:44;11.10;69.00
15359;DHT22;7779;49.596;11.070;2023-04-01T01:56:11;11.20;69.10
15359;DHT22;7779;49.596;11.070;2023-04-01T01:58:45;11.20;68.90
15359;DHT22;7779;49.596;11.070;2023-04-01T02:01:23;11.20;68.90
15359;DHT22;7779;49.596;11.070;2023-04-01T02:03:52;11.20;68.80
15359;DHT22;7779;49.596;11.070;2023-04-01T02:06:22;11.20;68.70
15359;DHT22;7779;49.596;11.070;2023-04-01T02:08:57;11.20;68.50
15359;DHT22;7779;49.596;11.070;2023-04-01T02:14:26;11.20;68.10
15359;DHT22;7779;49.596;11.070;2023-04-01T02:17:02;11.20;68.10
15359;DHT22;7779;49.596;11.070;2023-04-01T02:19:53;11.10;68.10
15359;DHT22;7779;49.596;11.070;2023-04-01T02:22:33;11.10;68.00
15359;DHT22;7779;49.596;11.070;2023-04-01T02:25:09;11.10;68.10
15359;DHT22;7779;49.596;11.070;2023-04-01T02:27:43;11.10;68.10
15359;DHT22;7779;49.596;11.070;2023-04-01T02:30:12;11.10;68.10
15359;DHT22;7779;49.596;11.070;2023-04-01T02:32:40;11.10;68.10
15359;DHT22;7779;49.596;11.070;2023-04-01T02:35:09;11.10;68.10
15359;DHT22;7779;49.596;11.070;2023-04-01T02:37:37;11.10;68.10
15359;DHT22;7779;49.596;11.070;2023-04-01T02:40:08;11.10;68.10
15359;DHT22;7779;49.596;11.070;2023-04-01T02:42:36;11.20;68.20
15359;DHT22;7779;49.596;11.070;2023-04-01T02:45:04;11.20;68.20
15359;DHT22;7779;49.596;11.070;2023-04-01T02:47:31;11.20;68.10
15359;DHT22;7779;49.596;11.070;2023-04-01T02:49:56;11.20;68.10
15359;DHT22;7779;49.596;11.070;2023-04-01T02:52:28;11.20;68.00
15359;DHT22;7779;49.596;11.070;2023-04-01T02:54:59;11.20;67.90
15359;DHT22;7779;49.596;11.070;2023-04-01T02:57:25;11.20;68.00
15359;DHT22;7779;49.596;11.070;2023-04-01T02:59:51;11.20;67.90
15359;DHT22;7779;49.596;11.070;2023-04-01T03:02:17;11.20;67.80
15359;DHT22;7779;49.596;11.070;2023-04-01T03:04:44;11.20;67.80
15359;DHT22;7779;49.596;11.070;2023-04-01T03:07:10;11.30;67.90
15359;DHT22;7779;49.596;11.070;2023-04-01T03:09:37;11.30;67.80
15359;DHT22;7779;49.596;11.070;2023-04-01T03:12:03;11.30;67.80
15359;DHT22;7779;49.596;11.070;2023-04-01T03:14:32;11.30;67.70
15359;DHT22;7779;49.596;11.070;2023-04-01T03:16:58;11.30;67.70
15359;DHT22;7779;49.596;11.070;2023-04-01T03:19:24;11.30;67.60
15359;DHT22;7779;49.596;11.070;2023-04-01T03:21:49;11.30;67.50
15359;DHT22;7779;49.596;11.070;2023-04-01T03:24:15;11.30;67.50
15359;DHT22;7779;49.596;11.070;2023-04-01T03:26:41;11.30;67.50
15359;DHT22;7779;49.596;11.070;2023-04-01T03:29:07;11.30;67.40
15359;DHT22;7779;49.596;11.070;2023-04-01T03:31:33;11.30;67.40
15359;DHT22;7779;49.596;11.070;2023-04-01T03:33:59;11.30;67.40
15359;DHT22;7779;49.596;11.070;2023-04-01T03:36:26;11.30;67.40
15359;DHT22;7779;49.596;11.070;2023-04-01T03:38:52;11.30;67.40
15359;DHT22;7779;49.596;11.070;2023-04-01T03:41:24;11.30;67.40
15359;DHT22;7779;49.596;11.070;2023-04-01T03:43:51;11.30;68.00
15359;DHT22;7779;49.596;11.070;2023-04-01T03:46:19;11.30;67.30
15359;DHT22;7779;49.596;11.070;2023-04-01T03:48:46;11.30;67.30
15359;DHT22;7779;49.596;11.070;2023-04-01T03:51:12;11.30;67.30
15359;DHT22;7779;49.596;11.070;2023-04-01T03:53:38;11.30;67.30
15359;DHT22;7779;49.596;11.070;2023-04-01T03:56:06;11.30;67.30
15359;DHT22;7779;49.596;11.070;2023-04-01T03:58:35;11.30;67.30
15359;DHT22;7779;49.596;11.070;2023-04-01T04:01:17;11.30;67.20
15359;DHT22;7779;49.596;11.070;2023-04-01T04:03:46;11.30;67.10
15359;DHT22;7779;49.596;11.070;2023-04-01T04:06:15;11.20;67.10
15359;DHT22;7779;49.596;11.070;2023-04-01T04:08:42;11.30;67.20
15359;DHT22;7779;49.596;11.070;2023-04-01T04:11:08;11.20;67.00
15359;DHT22;7779;49.596;11.070;2023-04-01T04:13:37;11.20;67.00
15359;DHT22;7779;49.596;11.070;2023-04-01T04:16:04;11.20;67.00
15359;DHT22;7779;49.596;11.070;2023-04-01T04:18:30;11.20;67.00
15359;DHT22;7779;49.596;11.070;2023-04-01T04:20:56;11.20;67.10
15359;DHT22;7779;49.596;11.070;2023-04-01T04:23:24;11.20;67.00
15359;DHT22;7779;49.596;11.070;2023-04-01T04:26:11;11.20;67.00
15359;DHT22;7779;49.596;11.070;2023-04-01T04:28:39;11.50;67.00
15359;DHT22;7779;49.596;11.070;2023-04-01T04:31:05;11.20;67.00
15359;DHT22;7779;49.596;11.070;2023-04-01T04:33:34;11.20;67.00
15359;DHT22;7779;49.596;11.070;2023-04-01T04:36:01;11.30;67.00
15359;DHT22;7779;49.596;11.070;2023-04-01T04:38:28;11.20;66.90
15359;DHT22;7779;49.596;11.070;2023-04-01T04:40:54;11.20;66.90
15359;DHT22;7779;49.596;11.070;2023-04-01T04:43:21;11.20;66.80
15359;DHT22;7779;49.596;11.070;2023-04-01T04:45:47;11.20;66.80
15359;DHT22;7779;49.596;11.070;2023-04-01T04:48:15;11.20;66.90
15359;DHT22;7779;49.596;11.070;2023-04-01T04:50:48;11.20;66.80
15359;DHT22;7779;49.596;11.070;2023-04-01T04:53:18;11.20;66.80
15359;DHT22;7779;49.596;11.070;2023-04-01T04:55:45;11.20;66.90
15359;DHT22;7779;49.596;11.070;2023-04-01T04:58:21;11.20;66.80
15359;DHT22;7779;49.596;11.070;2023-04-01T05:00:47;11.20;66.90
15359;DHT22;7779;49.596;11.070;2023-04-01T05:03:24;11.10;66.90
15359;DHT22;7779;49.596;11.070;2023-04-01T05:05:52;11.10;66.40
15359;DHT22;7779;49.596;11.070;2023-04-01T05:08:19;11.10;66.90
15359;DHT22;7779;49.596;11.070;2023-04-01T05:10:46;11.10;67.00
15359;DHT22;7779;49.596;11.070;2023-04-01T05:13:11;11.10;67.10
15359;DHT22;7779;49.596;11.070;2023-04-01T05:15:38;11.00;67.00
15359;DHT22;7779;49.596;11.070;2023-04-01T05:18:04;11.00;67.10
15359;DHT22;7779;49.596;11.070;2023-04-01T05:20:30;11.00;67.10
15359;DHT22;7779;49.596;11.070;2023-04-01T05:22:57;11.00;67.20
15359;DHT22;7779;49.596;11.070;2023-04-01T05:25:24;11.00;67.20
15359;DHT22;7779;49.596;11.070;2023-04-01T05:27:50;11.00;67.30
15359;DHT22;7779;49.596;11.070;2023-04-01T05:30:16;11.00;67.30
15359;DHT22;7779;49.596;11.070;2023-04-01T05:32:56;11.00;67.40
15359;DHT22;7779;49.596;11.070;2023-04-01T05:35:21;11.00;67.40
15359;DHT22;7779;49.596;11.070;2023-04-01T05:37:48;11.00;67.40
15359;DHT22;7779;49.596;11.070;2023-04-01T05:40:14;11.00;67.50
15359;DHT22;7779;49.596;11.070;2023-04-01T05:42:40;11.00;67.50
15359;DHT22;7779;49.596;11.070;2023-04-01T05:45:06;11.00;67.60
15359;DHT22;7779;49.596;11.070;2023-04-01T05:48:04;11.00;67.60
15359;DHT22;7779;49.596;11.070;2023-04-01T05:50:36;11.00;67.60
15359;DHT22;7779;49.596;11.070;2023-04-01T05:53:02;11.00;67.60
15359;DHT22;7779;49.596;11.070;2023-04-01T05:55:27;11.00;67.60
15359;DHT22;7779;49.596;11.070;2023-04-01T05:57:53;11.00;67.60
15359;DHT22;7779;49.596;11.070;2023-04-01T06:00:19;11.00;67.60
15359;DHT22;7779;49.596;11.070;2023-04-01T06:02:46;11.00;67.60
15359;DHT22;7779;49.596;11.070;2023-04-01T06:05:13;11.10;67.70
15359;DHT22;7779;49.596;11.070;2023-04-01T06:07:43;11.10;67.70
15359;DHT22;7779;49.596;11.070;2023-04-01T06:10:13;11.10;67.70
15359;DHT22;7779;49.596;11.070;2023-04-01T06:15:42;11.10;67.60
15359;DHT22;7779;49.596;11.070;2023-04-01T06:18:39;11.10;67.60
15359;DHT22;7779;49.596;11.070;2023-04-01T06:30:40;11.20;67.80
15359;DHT22;7779;49.596;11.070;2023-04-01T06:33:45;11.20;67.90
15359;DHT22;7779;49.596;11.070;2023-04-01T06:39:21;11.30;68.20
15359;DHT22;7779;49.596;11.070;2023-04-01T06:48:36;11.50;68.30
15359;DHT22;7779;49.596;11.070;2023-04-01T06:54:56;11.70;68.30
15359;DHT22;7779;49.596;11.070;2023-04-01T07:00:59;11.80;68.00
15359;DHT22;7779;49.596;11.070;2023-04-01T07:03:44;11.90;68.00
15359;DHT22;7779;49.596;11.070;2023-04-01T07:06:39;12.30;68.10
15359;DHT22;7779;49.596;11.070;2023-04-01T07:09:18;12.00;67.60
15359;DHT22;7779;49.596;11.070;2023-04-01T07:12:22;12.00;67.80
15359;DHT22;7779;49.596;11.070;2023-04-01T07:15:21;12.10;67.90
15359;DHT22;7779;49.596;11.070;2023-04-01T07:18:03;12.20;67.70
15359;DHT22;7779;49.596;11.070;2023-04-01T07:20:37;12.20;67.70
15359;DHT22;7779;49.596;11.070;2023-04-01T07:23:15;12.30;67.80
15359;DHT22;7779;49.596;11.070;2023-04-01T07:25:59;12.30;67.40
15359;DHT22;7779;49.596;11.070;2023-04-01T07:29:09;12.40;67.40
15359;DHT22;7779;49.596;11.070;2023-04-01T07:31:50;12.40;67.30
15359;DHT22;7779;49.596;11.070;2023-04-01T07:37:22;12.50;66.90
15359;DHT22;7779;49.596;11.070;2023-04-01T07:40:04;12.60;67.20
15359;DHT22;7779;49.596;11.070;2023-04-01T07:45:42;12.70;67.10
15359;DHT22;7779;49.596;11.070;2023-04-01T07:51:19;12.80;65.80
15359;DHT22;7779;49.596;11.070;2023-04-01T07:54:23;12.90;66.70
15359;DHT22;7779;49.596;11.070;2023-04-01T08:05:55;12.90;64.30
15359;DHT22;7779;49.596;11.070;2023-04-01T08:09:02;13.00;65.30
15359;DHT22;7779;49.596;11.070;2023-04-01T08:12:19;12.90;64.60
15359;DHT22;7779;49.596;11.070;2023-04-01T08:15:23;13.00;64.20
15359;DHT22;7779;49.596;11.070;2023-04-01T08:18:05;13.00;65.20
15359;DHT22;7779;49.596;11.070;2023-04-01T08:20:46;13.00;65.90
15359;DHT22;7779;49.596;11.070;2023-04-01T08:23:19;13.10;65.50
15359;DHT22;7779;49.596;11.070;2023-04-01T08:25:53;13.10;65.40
15359;DHT22;7779;49.596;11.070;2023-04-01T08:29:04;13.10;65.10
15359;DHT22;7779;49.596;11.070;2023-04-01T08:31:57;13.10;64.30
15359;DHT22;7779;49.596;11.070;2023-04-01T08:34:51;13.20;64.80
15359;DHT22;7779;49.596;11.070;2023-04-01T08:37:37;13.20;65.00
15359;DHT22;7779;49.596;11.070;2023-04-01T08:43:06;13.20;64.20
15359;DHT22;7779;49.596;11.070;2023-04-01T08:46:04;13.20;63.80
15359;DHT22;7779;49.596;11.070;2023-04-01T08:48:52;13.10;63.50
15359;DHT22;7779;49.596;11.070;2023-04-01T08:52:03;13.10;64.00
15359;DHT22;7779;49.596;11.070;2023-04-01T09:11:05;13.00;63.80
15359;DHT22;7779;49.596;11.070;2023-04-01T09:14:23;12.90;63.40
15359;DHT22;7779;49.596;11.070;2023-04-01T09:17:41;12.90;63.00
15359;DHT22;7779;49.596;11.070;2023-04-01T09:28:49;13.00;64.50
15359;DHT22;7779;49.596;11.070;2023-04-01T09:41:02;13.10;64.00
15359;DHT22;7779;49.596;11.070;2023-04-01T09:44:03;13.10;64.30
15359;DHT22;7779;49.596;11.070;2023-04-01T09:47:09;13.10;64.40
15359;DHT22;7779;49.596;11.070;2023-04-01T09:59:03;13.10;63.80
15359;DHT22;7779;49.596;11.070;2023-04-01T10:11:58;13.10;64.60
15359;DHT22;7779;49.596;11.070;2023-04-01T10:21:05;13.10;64.90
15359;DHT22;7779;49.596;11.070;2023-04-01T10:24:10;13.10;64.80
15359;DHT22;7779;49.596;11.070;2023-04-01T10:34:24;13.00;65.00
15359;DHT22;7779;49.596;11.070;2023-04-01T10:36:56;13.00;64.90
15359;DHT22;7779;49.596;11.070;2023-04-01T10:52:29;13.20;66.70
15359;DHT22;7779;49.596;11.070;2023-04-01T11:02:29;13.20;65.80
15359;DHT22;7779;49.596;11.070;2023-04-01T11:06:11;13.10;65.70
15359;DHT22;7779;49.596;11.070;2023-04-01T11:09:19;13.00;65.60
15359;DHT22;7779;49.596;11.070;2023-04-01T11:12:09;13.00;65.50
15359;DHT22;7779;49.596;11.070;2023-04-01T11:33:57;12.70;67.10
15359;DHT22;7779;49.596;11.070;2023-04-01T11:39:37;12.60;67.10
15359;DHT22;7779;49.596;11.070;2023-04-01T11:43:00;12.60;67.10
15359;DHT22;7779;49.596;11.070;2023-04-01T11:46:04;12.60;67.00
15359;DHT22;7779;49.596;11.070;2023-04-01T11:57:40;12.60;67.60
15359;DHT22;7779;49.596;11.070;2023-04-01T12:12:27;12.70;67.50
15359;DHT22;7779;49.596;11.070;2023-04-01T12:15:21;12.70;67.80
15359;DHT22;7779;49.596;11.070;2023-04-01T12:18:02;12.70;68.00
15359;DHT22;7779;49.596;11.070;2023-04-01T12:20:49;12.70;67.60
15359;DHT22;7779;49.596;11.070;2023-04-01T12:23:44;12.70;68.20
15359;DHT22;7779;49.596;11.070;2023-04-01T12:26:25;12.60;68.20
15359;DHT22;7779;49.596;11.070;2023-04-01T12:29:44;12.60;67.90
15359;DHT22;7779;49.596;11.070;2023-04-01T12:35:26;12.70;68.20
15359;DHT22;7779;49.596;11.070;2023-04-01T12:43:54;12.60;67.90
15359;DHT22;7779;49.596;11.070;2023-04-01T12:46:50;12.70;68.30
15359;DHT22;7779;49.596;11.070;2023-04-01T12:50:13;12.60;68.30
15359;DHT22;7779;49.596;11.070;2023-04-01T12:53:16;12.60;68.50
15359;DHT22;7779;49.596;11.070;2023-04-01T12:55:54;12.60;68.30
15359;DHT22;7779;49.596;11.070;2023-04-01T12:59:44;12.60;68.10
15359;DHT22;7779;49.596;11.070;2023-04-01T13:04:55;12.60;68.30
15359;DHT22;7779;49.596;11.070;2023-04-01T13:10:44;12.60;68.70
15359;DHT22;7779;49.596;11.070;2023-04-01T13:17:10;12.50;69.20
15359;DHT22;7779;49.596;11.070;2023-04-01T13:19:57;12.50;68.90
15359;DHT22;7779;49.596;11.070;2023-04-01T13:22:41;12.50;68.90
15359;DHT22;7779;49.596;11.070;2023-04-01T13:25:35;12.50;68.90
15359;DHT22;7779;49.596;11.070;2023-04-01T13:36:59;12.40;69.80
15359;DHT22;7779;49.596;11.070;2023-04-01T13:40:16;12.50;69.10
15359;DHT22;7779;49.596;11.070;2023-04-01T13:42:58;12.40;70.10
15359;DHT22;7779;49.596;11.070;2023-04-01T13:57:29;12.50;70.30
15359;DHT22;7779;49.596;11.070;2023-04-01T14:00:19;12.40;70.40
15359;DHT22;7779;49.596;11.070;2023-04-01T14:03:19;12.40;69.70
15359;DHT22;7779;49.596;11.070;2023-04-01T14:08:49;12.50;69.80
15359;DHT22;7779;49.596;11.070;2023-04-01T14:14:51;12.50;70.00
15359;DHT22;7779;49.596;11.070;2023-04-01T14:38:47;12.60;70.70
15359;DHT22;7779;49.596;11.070;2023-04-01T14:47:11;12.50;69.50
15359;DHT22;7779;49.596;11.070;2023-04-01T14:49:48;12.60;70.30
15359;DHT22;7779;49.596;11.070;2023-04-01T14:52:35;12.50;70.10
15359;DHT22;7779;49.596;11.070;2023-04-01T14:55:31;12.50;70.50
15359;DHT22;7779;49.596;11.070;2023-04-01T14:58:21;12.50;70.70
15359;DHT22;7779;49.596;11.070;2023-04-01T15:23:05;12.30;70.70
15359;DHT22;7779;49.596;11.070;2023-04-01T15:26:07;12.40;70.90
15359;DHT22;7779;49.596;11.070;2023-04-01T15:31:54;12.30;70.80
15359;DHT22;7779;49.596;11.070;2023-04-01T15:34:32;12.30;70.80
15359;DHT22;7779;49.596;11.070;2023-04-01T15:40:11;12.20;70.60
15359;DHT22;7779;49.596;11.070;2023-04-01T15:45:47;12.20;70.60
15359;DHT22;7779;49.596;11.070;2023-04-01T15:54:38;12.10;70.40
15359;DHT22;7779;49.596;11.070;2023-04-01T16:00:45;12.10;70.60
15359;DHT22;7779;49.596;11.070;2023-04-01T16:18:31;12.00;70.50
15359;DHT22;7779;49.596;11.070;2023-04-01T16:21:45;11.90;70.10
15359;DHT22;7779;49.596;11.070;2023-04-01T16:26:55;11.90;70.50
15359;DHT22;7779;49.596;11.070;2023-04-01T16:29:49;11.90;70.50
15359;DHT22;7779;49.596;11.070;2023-04-01T16:32:41;11.90;71.10
15359;DHT22;7779;49.596;11.070;2023-04-01T16:35:42;11.90;71.20
15359;DHT22;7779;49.596;11.070;2023-04-01T16:43:39;11.80;71.40
15359;DHT22;7779;49.596;11.070;2023-04-01T16:49:25;11.80;70.80
15359;DHT22;7779;49.596;11.070;2023-04-01T16:52:15;11.80;70.60
15359;DHT22;7779;49.596;11.070;2023-04-01T16:55:08;11.70;70.80
15359;DHT22;7779;49.596;11.070;2023-04-01T16:58:07;11.70;71.10
15359;DHT22;7779;49.596;11.070;2023-04-01T17:00:48;11.70;71.30
15359;DHT22;7779;49.596;11.070;2023-04-01T17:03:28;11.70;71.00
15359;DHT22;7779;49.596;11.070;2023-04-01T17:11:55;11.60;70.50
15359;DHT22;7779;49.596;11.070;2023-04-01T17:14:46;11.60;70.60
15359;DHT22;7779;49.596;11.070;2023-04-01T17:20:28;11.60;70.90
15359;DHT22;7779;49.596;11.070;2023-04-01T17:28:40;11.50;71.10
15359;DHT22;7779;49.596;11.070;2023-04-01T17:31:33;11.50;70.90
15359;DHT22;7779;49.596;11.070;2023-04-01T17:34:26;11.50;71.50
15359;DHT22;7779;49.596;11.070;2023-04-01T17:40:48;11.50;71.10
15359;DHT22;7779;49.596;11.070;2023-04-01T17:46:55;11.40;71.60
15359;DHT22;7779;49.596;11.070;2023-04-01T17:49:37;11.40;71.80
15359;DHT22;7779;49.596;11.070;2023-04-01T17:52:33;11.40;71.50
15359;DHT22;7779;49.596;11.070;2023-04-01T18:09:53;11.30;72.10
15359;DHT22;7779;49.596;11.070;2023-04-01T18:15:45;11.20;72.10
15359;DHT22;7779;49.596;11.070;2023-04-01T18:21:35;11.20;71.80
15359;DHT22;7779;49.596;11.070;2023-04-01T18:24:33;11.20;72.10
15359;DHT22;7779;49.596;11.070;2023-04-01T18:29:41;11.20;71.50
15359;DHT22;7779;49.596;11.070;2023-04-01T18:35:27;11.20;71.80
15359;DHT22;7779;49.596;11.070;2023-04-01T18:38:14;11.20;72.20
15359;DHT22;7779;49.596;11.070;2023-04-01T18:41:34;11.20;71.60
15359;DHT22;7779;49.596;11.070;2023-04-01T18:44:16;11.10;71.60
15359;DHT22;7779;49.596;11.070;2023-04-01T18:56:11;11.10;71.50
15359;DHT22;7779;49.596;11.070;2023-04-01T18:59:04;11.10;71.50
15359;DHT22;7779;49.596;11.070;2023-04-01T19:01:59;11.10;71.90
15359;DHT22;7779;49.596;11.070;2023-04-01T19:10:40;11.10;71.60
15359;DHT22;7779;49.596;11.070;2023-04-01T19:16:29;11.10;71.80
15359;DHT22;7779;49.596;11.070;2023-04-01T19:19:26;11.20;71.80
15359;DHT22;7779;49.596;11.070;2023-04-01T19:22:38;11.10;71.90
15359;DHT22;7779;49.596;11.070;2023-04-01T19:28:22;11.20;72.10
15359;DHT22;7779;49.596;11.070;2023-04-01T19:30:58;11.20;72.20
15359;DHT22;7779;49.596;11.070;2023-04-01T19:36:37;11.20;71.80
15359;DHT22;7779;49.596;11.070;2023-04-01T19:43:00;11.20;72.20
15359;DHT22;7779;49.596;11.070;2023-04-01T19:46:11;11.20;71.80
15359;DHT22;7779;49.596;11.070;2023-04-01T19:58:09;11.20;71.50
15359;DHT22;7779;49.596;11.070;2023-04-01T20:00:44;11.20;71.80
15359;DHT22;7779;49.596;11.070;2023-04-01T20:06:23;11.20;72.00
15359;DHT22;7779;49.596;11.070;2023-04-01T20:09:09;11.30;71.80
15359;DHT22;7779;49.596;11.070;2023-04-01T20:11:58;11.20;71.80
15359;DHT22;7779;49.596;11.070;2023-04-01T20:14:51;11.20;71.70
15359;DHT22;7779;49.596;11.070;2023-04-01T20:17:25;11.20;72.60
15359;DHT22;7779;49.596;11.070;2023-04-01T20:25:20;11.20;71.80
15359;DHT22;7779;49.596;11.070;2023-04-01T20:27:58;11.20;71.80
15359;DHT22;7779;49.596;11.070;2023-04-01T20:31:08;11.30;71.80
15359;DHT22;7779;49.596;11.070;2023-04-01T20:34:19;11.30;72.20
15359;DHT22;7779;49.596;11.070;2023-04-01T20:46:18;11.20;71.60
15359;DHT22;7779;49.596;11.070;2023-04-01T20:54:46;11.20;71.80
15359;DHT22;7779;49.596;11.070;2023-04-01T21:01:25;11.20;72.10
15359;DHT22;7779;49.596;11.070;2023-04-01T21:04:10;11.20;71.90
15359;DHT22;7779;49.596;11.070;2023-04-01T21:07:06;11.20;71.40
15359;DHT22;7779;49.596;11.070;2023-04-01T21:12:49;11.20;71.80
15359;DHT22;7779;49.596;11.070;2023-04-01T21:15:47;11.20;71.40
15359;DHT22;7779;49.596;11.070;2023-04-01T21:18:47;11.20;71.60
15359;DHT22;7779;49.596;11.070;2023-04-01T21:24:48;11.20;71.10
15359;DHT22;7779;49.596;11.070;2023-04-01T21:31:02;11.30;71.50
15359;DHT22;7779;49.596;11.070;2023-04-01T21:40:19;11.30;71.20
15359;DHT22;7779;49.596;11.070;2023-04-01T21:55:28;11.30;71.10
15359;DHT22;7779;49.596;11.070;2023-04-01T21:58:44;11.30;71.30
15359;DHT22;7779;49.596;11.070;2023-04-01T22:10:45;11.20;70.80
15359;DHT22;7779;49.596;11.070;2023-04-01T22:13:25;11.20;71.20
15359;DHT22;7779;49.596;11.070;2023-04-01T22:22:08;11.30;71.00
15359;DHT22;7779;49.596;11.070;2023-04-01T22:25:06;11.20;70.80
15359;DHT22;7779;49.596;11.070;2023-04-01T22:27:52;11.30;71.20
15359;DHT22;7779;49.596;11.070;2023-04-01T22:30:30;11.30;71.20
15359;DHT22;7779;49.596;11.070;2023-04-01T22:33:10;11.30;71.20
15359;DHT22;7779;49.596;11.070;2023-04-01T22:36:00;11.30;71.20
15359;DHT22;7779;49.596;11.070;2023-04-01T22:41:38;11.30;71.10
15359;DHT22;7779;49.596;11.070;2023-04-01T22:44:34;11.30;71.10
15359;DHT22;7779;49.596;11.070;2023-04-01T22:50:19;11.30;71.20
15359;DHT22;7779;49.596;11.070;2023-04-01T22:52:59;11.30;71.40
15359;DHT22;7779;49.596;11.070;2023-04-01T22:55:35;11.30;71.40
15359;DHT22;7779;49.596;11.070;2023-04-01T22:58:14;11.30;71.30
15359;DHT22;7779;49.596;11.070;2023-04-01T23:00:49;11.30;71.30
15359;DHT22;7779;49.596;11.070;2023-04-01T23:03:22;11.30;71.30
15359;DHT22;7779;49.596;11.070;2023-04-01T23:05:56;11.30;71.30
15359;DHT22;7779;49.596;11.070;2023-04-01T23:08:39;11.30;71.30
15359;DHT22;7779;49.596;11.070;2023-04-01T23:11:11;11.30;71.30
15359;DHT22;7779;49.596;11.070;2023-04-01T23:28:13;11.30;71.30
15359;DHT22;7779;49.596;11.070;2023-04-01T23:38:41;11.20;71.20
15359;DHT22;7779;49.596;11.070;2023-04-01T23:41:16;11.20;71.00
15359;DHT22;7779;49.596;11.070;2023-04-01T23:43:53;11.30;71.10
15359;DHT22;7779;49.596;11.070;2023-04-01T23:46:25;11.20;71.00
15359;DHT22;7779;49.596;11.070;2023-04-01T23:48:52;11.20;71.00
15359;DHT22;7779;49.596;11.070;2023-04-01T23:51:35;11.20;71.00
15359;DHT22;7779;49.596;11.070;2023-04-01T23:57:12;11.20;71.50
15359;DHT22;7779;49.596;11.070;2023-04-01T23:59:41;11.20;71.40
